sensor_id;sensor_type;location;lat;lon;timestamp;pressure;altitude;pressure_sealevel;temperature;humidity
44441;BME280;30146;52.268;20.944;2023-06-24T00:01:13;100390.61;;;20.37;56.51
44441;BME280;30146;52.268;20.944;2023-06-24T00:03:44;100388.48;;;20.38;56.45
44441;BME280;30146;52.268;20.944;2023-06-24T00:06:16;100389.47;;;20.39;56.57
44441;BME280;30146;52.268;20.944;2023-06-24T00:08:48;100387.68;;;20.41;56.49
44441;BME280;30146;52.268;20.944;2023-06-24T00:11:20;100385.40;;;20.41;56.36
44441;BME280;30146;52.268;20.944;2023-06-24T00:13:51;100382.27;;;20.41;56.42
44441;BME280;30146;52.268;20.944;2023-06-24T00:16:22;100386.43;;;20.41;56.25
44441;BME280;30146;52.268;20.944;2023-06-24T00:18:57;100385.80;;;20.40;56.25
44441;BME280;30146;52.268;20.944;2023-06-24T00:21:30;100391.90;;;20.39;56.33
44441;BME280;30146;52.268;20.944;2023-06-24T00:24:02;100397.95;;;20.40;56.49
44441;BME280;30146;52.268;20.944;2023-06-24T00:26:34;100393.94;;;20.41;56.44
44441;BME280;30146;52.268;20.944;2023-06-24T00:29:05;100395.52;;;20.40;56.43
44441;BME280;30146;52.268;20.944;2023-06-24T00:31:36;100395.39;;;20.39;56.33
44441;BME280;30146;52.268;20.944;2023-06-24T00:34:08;100394.48;;;20.40;56.60
44441;BME280;30146;52.268;20.944;2023-06-24T00:36:38;100396.03;;;20.40;56.52
44441;BME280;30146;52.268;20.944;2023-06-24T00:39:10;100403.66;;;20.41;56.38
44441;BME280;30146;52.268;20.944;2023-06-24T00:41:41;100406.78;;;20.41;56.59
44441;BME280;30146;52.268;20.944;2023-06-24T00:44:12;100410.42;;;20.41;56.45
44441;BME280;30146;52.268;20.944;2023-06-24T00:46:43;100415.81;;;20.40;56.47
44441;BME280;30146;52.268;20.944;2023-06-24T00:49:14;100417.38;;;20.40;56.56
44441;BME280;30146;52.268;20.944;2023-06-24T00:51:45;100421.88;;;20.40;56.47
44441;BME280;30146;52.268;20.944;2023-06-24T00:54:20;100418.77;;;20.40;56.51
44441;BME280;30146;52.268;20.944;2023-06-24T00:56:51;100418.60;;;20.40;56.51
44441;BME280;30146;52.268;20.944;2023-06-24T00:59:24;100421.56;;;20.40;56.53
44441;BME280;30146;52.268;20.944;2023-06-24T01:01:58;100427.09;;;20.41;56.67
44441;BME280;30146;52.268;20.944;2023-06-24T01:04:31;100434.36;;;20.41;56.55
44441;BME280;30146;52.268;20.944;2023-06-24T01:07:04;100438.70;;;20.41;56.77
44441;BME280;30146;52.268;20.944;2023-06-24T01:09:37;100441.66;;;20.41;56.66
44441;BME280;30146;52.268;20.944;2023-06-24T01:12:09;100438.55;;;20.40;56.61
44441;BME280;30146;52.268;20.944;2023-06-24T01:14:40;100436.89;;;20.39;56.48
44441;BME280;30146;52.268;20.944;2023-06-24T01:17:15;100444.04;;;20.38;56.64
44441;BME280;30146;52.268;20.944;2023-06-24T01:19:56;100448.27;;;20.37;56.64
44441;BME280;30146;52.268;20.944;2023-06-24T01:23:11;100451.80;;;20.35;56.63
44441;BME280;30146;52.268;20.944;2023-06-24T01:26:03;100446.31;;;20.35;56.84
44441;BME280;30146;52.268;20.944;2023-06-24T01:28:59;100450.66;;;20.34;56.75
44441;BME280;30146;52.268;20.944;2023-06-24T01:31:39;100455.30;;;20.32;56.71
44441;BME280;30146;52.268;20.944;2023-06-24T01:34:18;100451.23;;;20.30;56.85
44441;BME280;30146;52.268;20.944;2023-06-24T01:36:57;100451.92;;;20.30;57.01
44441;BME280;30146;52.268;20.944;2023-06-24T01:39:33;100449.16;;;20.29;56.93
44441;BME280;30146;52.268;20.944;2023-06-24T01:42:11;100451.83;;;20.28;56.99
44441;BME280;30146;52.268;20.944;2023-06-24T01:44:45;100451.71;;;20.27;56.85
44441;BME280;30146;52.268;20.944;2023-06-24T01:47:21;100448.49;;;20.25;56.81
44441;BME280;30146;52.268;20.944;2023-06-24T01:49:55;100448.77;;;20.23;56.66
44441;BME280;30146;52.268;20.944;2023-06-24T01:52:30;100444.91;;;20.20;56.78
44441;BME280;30146;52.268;20.944;2023-06-24T01:55:06;100446.89;;;20.19;56.83
44441;BME280;30146;52.268;20.944;2023-06-24T01:57:36;100446.47;;;20.16;56.90
44441;BME280;30146;52.268;20.944;2023-06-24T02:00:11;100444.73;;;20.13;56.87
44441;BME280;30146;52.268;20.944;2023-06-24T02:02:51;100451.10;;;20.10;57.06
44441;BME280;30146;52.268;20.944;2023-06-24T02:05:25;100447.05;;;20.08;56.99
44441;BME280;30146;52.268;20.944;2023-06-24T02:07:58;100449.46;;;20.05;57.00
44441;BME280;30146;52.268;20.944;2023-06-24T02:10:31;100449.73;;;20.02;56.99
44441;BME280;30146;52.268;20.944;2023-06-24T02:13:05;100451.60;;;19.99;57.08
44441;BME280;30146;52.268;20.944;2023-06-24T02:15:38;100456.80;;;19.96;57.11
44441;BME280;30146;52.268;20.944;2023-06-24T02:18:11;100459.27;;;19.92;57.06
44441;BME280;30146;52.268;20.944;2023-06-24T02:20:44;100463.08;;;19.88;56.99
44441;BME280;30146;52.268;20.944;2023-06-24T02:23:16;100465.17;;;19.84;56.91
44441;BME280;30146;52.268;20.944;2023-06-24T02:25:49;100468.64;;;19.80;56.97
44441;BME280;30146;52.268;20.944;2023-06-24T02:28:20;100466.20;;;19.76;57.11
44441;BME280;30146;52.268;20.944;2023-06-24T02:30:52;100472.73;;;19.74;57.33
44441;BME280;30146;52.268;20.944;2023-06-24T02:33:24;100473.80;;;19.74;57.41
44441;BME280;30146;52.268;20.944;2023-06-24T02:35:55;100478.98;;;19.74;57.52
44441;BME280;30146;52.268;20.944;2023-06-24T02:38:27;100473.13;;;19.72;57.48
44441;BME280;30146;52.268;20.944;2023-06-24T02:40:58;100482.06;;;19.70;57.37
44441;BME280;30146;52.268;20.944;2023-06-24T02:43:30;100480.55;;;19.70;57.67
44441;BME280;30146;52.268;20.944;2023-06-24T02:46:02;100484.20;;;19.69;57.64
44441;BME280;30146;52.268;20.944;2023-06-24T02:48:36;100484.91;;;19.69;57.73
44441;BME280;30146;52.268;20.944;2023-06-24T02:51:09;100485.42;;;19.69;57.84
44441;BME280;30146;52.268;20.944;2023-06-24T02:53:41;100489.63;;;19.68;57.81
44441;BME280;30146;52.268;20.944;2023-06-24T02:56:13;100493.33;;;19.67;57.88
44441;BME280;30146;52.268;20.944;2023-06-24T02:58:52;100491.98;;;19.66;57.91
44441;BME280;30146;52.268;20.944;2023-06-24T03:01:27;100498.91;;;19.66;57.99
44441;BME280;30146;52.268;20.944;2023-06-24T03:03:59;100499.23;;;19.66;58.23
44441;BME280;30146;52.268;20.944;2023-06-24T03:06:30;100501.77;;;19.68;58.32
44441;BME280;30146;52.268;20.944;2023-06-24T03:09:05;100506.31;;;19.71;58.58
44441;BME280;30146;52.268;20.944;2023-06-24T03:11:43;100504.29;;;19.74;58.55
44441;BME280;30146;52.268;20.944;2023-06-24T03:14:17;100509.16;;;19.78;58.61
44441;BME280;30146;52.268;20.944;2023-06-24T03:16:49;100513.02;;;19.81;58.67
44441;BME280;30146;52.268;20.944;2023-06-24T03:19:22;100510.98;;;19.83;58.65
44441;BME280;30146;52.268;20.944;2023-06-24T03:21:53;100513.70;;;19.85;58.63
44441;BME280;30146;52.268;20.944;2023-06-24T03:24:24;100519.80;;;19.88;58.68
44441;BME280;30146;52.268;20.944;2023-06-24T03:26:55;100512.29;;;19.93;58.80
44441;BME280;30146;52.268;20.944;2023-06-24T03:29:30;100513.55;;;19.99;58.95
44441;BME280;30146;52.268;20.944;2023-06-24T03:32:11;100514.77;;;20.07;59.00
44441;BME280;30146;52.268;20.944;2023-06-24T03:34:42;100520.25;;;20.12;58.82
44441;BME280;30146;52.268;20.944;2023-06-24T03:37:13;100521.23;;;20.17;58.75
44441;BME280;30146;52.268;20.944;2023-06-24T03:39:45;100521.11;;;20.24;58.82
44441;BME280;30146;52.268;20.944;2023-06-24T03:42:16;100522.58;;;20.34;58.97
44441;BME280;30146;52.268;20.944;2023-06-24T03:44:48;100525.94;;;20.43;58.71
44441;BME280;30146;52.268;20.944;2023-06-24T03:47:19;100524.29;;;20.52;58.65
44441;BME280;30146;52.268;20.944;2023-06-24T03:49:50;100525.09;;;20.57;58.41
44441;BME280;30146;52.268;20.944;2023-06-24T03:52:23;100532.38;;;20.61;58.41
44441;BME280;30146;52.268;20.944;2023-06-24T03:54:54;100531.45;;;20.67;58.64
44441;BME280;30146;52.268;20.944;2023-06-24T03:57:25;100537.94;;;20.72;58.57
44441;BME280;30146;52.268;20.944;2023-06-24T03:59:56;100540.80;;;20.78;58.43
44441;BME280;30146;52.268;20.944;2023-06-24T04:02:27;100537.53;;;20.81;58.13
44441;BME280;30146;52.268;20.944;2023-06-24T04:04:59;100541.09;;;20.82;58.15
44441;BME280;30146;52.268;20.944;2023-06-24T04:07:30;100541.11;;;20.85;58.29
44441;BME280;30146;52.268;20.944;2023-06-24T04:10:02;100539.52;;;20.90;58.21
44441;BME280;30146;52.268;20.944;2023-06-24T04:12:33;100538.80;;;20.93;58.17
44441;BME280;30146;52.268;20.944;2023-06-24T04:15:05;100539.42;;;20.99;58.36
44441;BME280;30146;52.268;20.944;2023-06-24T04:17:37;100539.61;;;21.05;58.54
44441;BME280;30146;52.268;20.944;2023-06-24T04:20:09;100539.89;;;21.14;58.47
44441;BME280;30146;52.268;20.944;2023-06-24T04:22:41;100544.38;;;21.22;58.20
44441;BME280;30146;52.268;20.944;2023-06-24T04:25:13;100540.34;;;21.36;58.25
44441;BME280;30146;52.268;20.944;2023-06-24T04:27:44;100544.91;;;21.52;58.38
44441;BME280;30146;52.268;20.944;2023-06-24T04:30:15;100545.73;;;21.70;58.28
44441;BME280;30146;52.268;20.944;2023-06-24T04:32:46;100541.13;;;21.91;58.11
44441;BME280;30146;52.268;20.944;2023-06-24T04:35:17;100537.20;;;22.09;57.75
44441;BME280;30146;52.268;20.944;2023-06-24T04:37:48;100531.62;;;22.25;57.63
44441;BME280;30146;52.268;20.944;2023-06-24T04:40:20;100530.14;;;22.40;57.31
44441;BME280;30146;52.268;20.944;2023-06-24T04:42:51;100529.68;;;22.52;57.31
44441;BME280;30146;52.268;20.944;2023-06-24T04:45:22;100529.77;;;22.59;56.74
44441;BME280;30146;52.268;20.944;2023-06-24T04:47:53;100524.96;;;22.67;56.73
44441;BME280;30146;52.268;20.944;2023-06-24T04:50:24;100525.97;;;22.74;56.33
44441;BME280;30146;52.268;20.944;2023-06-24T04:52:55;100529.52;;;22.78;56.02
44441;BME280;30146;52.268;20.944;2023-06-24T04:55:27;100533.20;;;22.79;55.65
44441;BME280;30146;52.268;20.944;2023-06-24T04:57:59;100533.25;;;22.77;55.49
44441;BME280;30146;52.268;20.944;2023-06-24T05:00:30;100532.29;;;22.73;55.16
44441;BME280;30146;52.268;20.944;2023-06-24T05:03:02;100534.77;;;22.66;54.89
44441;BME280;30146;52.268;20.944;2023-06-24T05:05:33;100536.50;;;22.60;54.91
44441;BME280;30146;52.268;20.944;2023-06-24T05:08:05;100537.16;;;22.55;54.95
44441;BME280;30146;52.268;20.944;2023-06-24T05:10:36;100538.83;;;22.50;55.04
44441;BME280;30146;52.268;20.944;2023-06-24T05:13:07;100543.48;;;22.44;54.95
44441;BME280;30146;52.268;20.944;2023-06-24T05:15:38;100548.28;;;22.40;55.10
44441;BME280;30146;52.268;20.944;2023-06-24T05:18:09;100551.80;;;22.36;55.09
44441;BME280;30146;52.268;20.944;2023-06-24T05:20:40;100558.90;;;22.30;55.00
44441;BME280;30146;52.268;20.944;2023-06-24T05:23:11;100557.02;;;22.26;55.22
44441;BME280;30146;52.268;20.944;2023-06-24T05:25:42;100556.34;;;22.26;55.31
44441;BME280;30146;52.268;20.944;2023-06-24T05:28:13;100561.71;;;22.26;55.53
44441;BME280;30146;52.268;20.944;2023-06-24T05:30:46;100561.60;;;22.29;55.67
44441;BME280;30146;52.268;20.944;2023-06-24T05:33:17;100566.59;;;22.33;55.65
44441;BME280;30146;52.268;20.944;2023-06-24T05:35:48;100574.29;;;22.39;55.62
44441;BME280;30146;52.268;20.944;2023-06-24T05:38:20;100577.07;;;22.48;55.64
44441;BME280;30146;52.268;20.944;2023-06-24T05:40:51;100581.50;;;22.66;55.82
44441;BME280;30146;52.268;20.944;2023-06-24T05:43:22;100581.41;;;22.82;55.86
44441;BME280;30146;52.268;20.944;2023-06-24T05:45:53;100580.80;;;22.97;55.84
44441;BME280;30146;52.268;20.944;2023-06-24T05:48:24;100584.86;;;23.14;55.90
44441;BME280;30146;52.268;20.944;2023-06-24T05:50:55;100586.23;;;23.30;55.55
44441;BME280;30146;52.268;20.944;2023-06-24T05:53:26;100589.77;;;23.49;55.52
44441;BME280;30146;52.268;20.944;2023-06-24T05:55:57;100589.19;;;23.68;55.41
44441;BME280;30146;52.268;20.944;2023-06-24T05:58:28;100598.42;;;24.03;55.44
44441;BME280;30146;52.268;20.944;2023-06-24T06:00:59;100596.60;;;24.58;55.38
44441;BME280;30146;52.268;20.944;2023-06-24T06:03:32;100600.25;;;25.15;55.42
44441;BME280;30146;52.268;20.944;2023-06-24T06:06:03;100597.70;;;25.76;54.87
44441;BME280;30146;52.268;20.944;2023-06-24T06:08:35;100596.48;;;26.19;54.03
44441;BME280;30146;52.268;20.944;2023-06-24T06:11:06;100596.19;;;26.43;52.71
44441;BME280;30146;52.268;20.944;2023-06-24T06:13:37;100594.79;;;26.55;51.85
44441;BME280;30146;52.268;20.944;2023-06-24T06:16:08;100596.15;;;26.60;51.57
44441;BME280;30146;52.268;20.944;2023-06-24T06:18:39;100593.54;;;26.61;51.12
44441;BME280;30146;52.268;20.944;2023-06-24T06:21:10;100593.61;;;26.59;51.11
44441;BME280;30146;52.268;20.944;2023-06-24T06:23:41;100595.85;;;26.57;50.74
44441;BME280;30146;52.268;20.944;2023-06-24T06:26:12;100601.67;;;26.62;50.80
44441;BME280;30146;52.268;20.944;2023-06-24T06:28:43;100598.73;;;26.78;51.29
44441;BME280;30146;52.268;20.944;2023-06-24T06:31:17;100600.89;;;27.04;51.27
44441;BME280;30146;52.268;20.944;2023-06-24T06:33:48;100595.52;;;27.29;51.04
44441;BME280;30146;52.268;20.944;2023-06-24T06:36:19;100599.89;;;27.59;51.38
44441;BME280;30146;52.268;20.944;2023-06-24T06:38:50;100599.02;;;27.86;50.74
44441;BME280;30146;52.268;20.944;2023-06-24T06:41:21;100597.62;;;28.02;49.97
44441;BME280;30146;52.268;20.944;2023-06-24T06:43:55;100599.91;;;28.18;49.96
44441;BME280;30146;52.268;20.944;2023-06-24T06:46:26;100601.90;;;28.21;48.96
44441;BME280;30146;52.268;20.944;2023-06-24T06:48:58;100605.97;;;28.21;48.48
44441;BME280;30146;52.268;20.944;2023-06-24T06:51:30;100608.44;;;28.23;48.48
44441;BME280;30146;52.268;20.944;2023-06-24T06:54:01;100609.67;;;28.28;48.33
44441;BME280;30146;52.268;20.944;2023-06-24T06:56:32;100615.09;;;28.33;48.25
44441;BME280;30146;52.268;20.944;2023-06-24T06:59:03;100607.75;;;28.38;47.92
44441;BME280;30146;52.268;20.944;2023-06-24T07:01:34;100609.95;;;28.46;47.96
44441;BME280;30146;52.268;20.944;2023-06-24T07:04:05;100604.91;;;28.52;47.58
44441;BME280;30146;52.268;20.944;2023-06-24T07:06:36;100610.11;;;28.60;47.83
44441;BME280;30146;52.268;20.944;2023-06-24T07:09:07;100611.48;;;28.67;47.67
44441;BME280;30146;52.268;20.944;2023-06-24T07:11:39;100608.34;;;28.77;47.59
44441;BME280;30146;52.268;20.944;2023-06-24T07:14:10;100604.53;;;28.87;47.56
44441;BME280;30146;52.268;20.944;2023-06-24T07:16:41;100603.54;;;28.99;47.20
44441;BME280;30146;52.268;20.944;2023-06-24T07:19:12;100604.63;;;29.10;46.68
44441;BME280;30146;52.268;20.944;2023-06-24T07:21:43;100599.29;;;29.19;46.33
44441;BME280;30146;52.268;20.944;2023-06-24T07:24:14;100595.63;;;29.23;45.86
44441;BME280;30146;52.268;20.944;2023-06-24T07:26:45;100593.73;;;29.29;46.48
44441;BME280;30146;52.268;20.944;2023-06-24T07:29:16;100588.99;;;29.39;46.56
44441;BME280;30146;52.268;20.944;2023-06-24T07:31:47;100587.39;;;29.49;46.05
44441;BME280;30146;52.268;20.944;2023-06-24T07:34:18;100589.25;;;29.63;46.15
44441;BME280;30146;52.268;20.944;2023-06-24T07:36:49;100592.44;;;29.75;45.39
44441;BME280;30146;52.268;20.944;2023-06-24T07:39:20;100590.86;;;29.87;45.14
44441;BME280;30146;52.268;20.944;2023-06-24T07:41:51;100592.20;;;29.96;44.12
44441;BME280;30146;52.268;20.944;2023-06-24T07:44:22;100596.04;;;29.99;43.66
44441;BME280;30146;52.268;20.944;2023-06-24T07:46:53;100599.15;;;30.03;43.92
44441;BME280;30146;52.268;20.944;2023-06-24T07:49:24;100603.17;;;30.12;43.89
44441;BME280;30146;52.268;20.944;2023-06-24T07:51:55;100596.42;;;30.16;43.31
44441;BME280;30146;52.268;20.944;2023-06-24T07:54:26;100604.65;;;30.21;43.08
44441;BME280;30146;52.268;20.944;2023-06-24T07:56:57;100605.08;;;30.24;42.71
44441;BME280;30146;52.268;20.944;2023-06-24T07:59:28;100607.70;;;30.29;42.98
44441;BME280;30146;52.268;20.944;2023-06-24T08:02:00;100607.52;;;30.31;42.17
44441;BME280;30146;52.268;20.944;2023-06-24T08:04:31;100613.85;;;30.31;42.08
44441;BME280;30146;52.268;20.944;2023-06-24T08:07:02;100615.54;;;30.34;42.01
44441;BME280;30146;52.268;20.944;2023-06-24T08:09:33;100615.04;;;30.36;41.20
44441;BME280;30146;52.268;20.944;2023-06-24T08:12:05;100617.27;;;30.35;40.88
44441;BME280;30146;52.268;20.944;2023-06-24T08:14:36;100620.30;;;30.32;40.75
44441;BME280;30146;52.268;20.944;2023-06-24T08:17:07;100619.05;;;30.32;40.97
44441;BME280;30146;52.268;20.944;2023-06-24T08:19:38;100615.48;;;30.32;40.25
44441;BME280;30146;52.268;20.944;2023-06-24T08:22:09;100619.52;;;30.32;39.63
44441;BME280;30146;52.268;20.944;2023-06-24T08:24:41;100621.34;;;30.32;39.33
44441;BME280;30146;52.268;20.944;2023-06-24T08:27:12;100621.32;;;30.34;39.32
44441;BME280;30146;52.268;20.944;2023-06-24T08:29:43;100623.05;;;30.33;38.87
44441;BME280;30146;52.268;20.944;2023-06-24T08:32:14;100620.23;;;30.33;39.17
44441;BME280;30146;52.268;20.944;2023-06-24T08:34:45;100620.23;;;30.35;38.98
44441;BME280;30146;52.268;20.944;2023-06-24T08:37:16;100623.71;;;30.38;38.58
44441;BME280;30146;52.268;20.944;2023-06-24T08:39:47;100624.43;;;30.33;38.04
44441;BME280;30146;52.268;20.944;2023-06-24T08:42:18;100618.27;;;30.27;38.28
44441;BME280;30146;52.268;20.944;2023-06-24T08:44:49;100622.81;;;30.27;39.06
44441;BME280;30146;52.268;20.944;2023-06-24T08:47:21;100621.01;;;30.28;38.42
44441;BME280;30146;52.268;20.944;2023-06-24T08:50:03;100627.14;;;30.28;38.42
44441;BME280;30146;52.268;20.944;2023-06-24T08:52:42;100630.98;;;30.29;38.25
44441;BME280;30146;52.268;20.944;2023-06-24T08:55:15;100630.46;;;30.22;37.60
44441;BME280;30146;52.268;20.944;2023-06-24T08:57:48;100630.21;;;30.09;37.42
44441;BME280;30146;52.268;20.944;2023-06-24T09:00:20;100634.98;;;29.95;37.08
44441;BME280;30146;52.268;20.944;2023-06-24T09:02:51;100637.67;;;29.82;37.25
44441;BME280;30146;52.268;20.944;2023-06-24T09:05:22;100642.92;;;29.70;37.45
44441;BME280;30146;52.268;20.944;2023-06-24T09:07:53;100644.41;;;29.58;37.19
44441;BME280;30146;52.268;20.944;2023-06-24T09:10:32;100648.01;;;29.45;37.48
44441;BME280;30146;52.268;20.944;2023-06-24T09:13:04;100646.09;;;29.32;37.54
44441;BME280;30146;52.268;20.944;2023-06-24T09:15:36;100644.12;;;29.22;37.55
44441;BME280;30146;52.268;20.944;2023-06-24T09:18:08;100646.20;;;29.11;37.49
44441;BME280;30146;52.268;20.944;2023-06-24T09:20:42;100646.34;;;29.01;37.52
44441;BME280;30146;52.268;20.944;2023-06-24T09:23:13;100650.38;;;28.90;37.79
44441;BME280;30146;52.268;20.944;2023-06-24T09:25:44;100648.73;;;28.80;37.59
44441;BME280;30146;52.268;20.944;2023-06-24T09:28:28;100646.60;;;28.70;37.85
44441;BME280;30146;52.268;20.944;2023-06-24T09:31:09;100643.41;;;28.61;37.79
44441;BME280;30146;52.268;20.944;2023-06-24T09:33:43;100641.73;;;28.54;37.86
44441;BME280;30146;52.268;20.944;2023-06-24T09:36:15;100643.23;;;28.50;37.64
44441;BME280;30146;52.268;20.944;2023-06-24T09:38:46;100639.27;;;28.49;37.93
44441;BME280;30146;52.268;20.944;2023-06-24T09:41:18;100643.43;;;28.47;37.77
44441;BME280;30146;52.268;20.944;2023-06-24T09:43:49;100642.96;;;28.47;38.00
44441;BME280;30146;52.268;20.944;2023-06-24T09:46:20;100645.19;;;28.48;37.83
44441;BME280;30146;52.268;20.944;2023-06-24T09:48:52;100642.27;;;28.47;37.58
44441;BME280;30146;52.268;20.944;2023-06-24T09:51:24;100642.88;;;28.46;37.51
44441;BME280;30146;52.268;20.944;2023-06-24T09:53:56;100641.50;;;28.45;37.89
44441;BME280;30146;52.268;20.944;2023-06-24T09:56:28;100642.83;;;28.47;38.26
44441;BME280;30146;52.268;20.944;2023-06-24T09:59:00;100645.13;;;28.44;37.61
44441;BME280;30146;52.268;20.944;2023-06-24T10:01:32;100643.42;;;28.39;37.49
44441;BME280;30146;52.268;20.944;2023-06-24T10:04:05;100639.91;;;28.32;37.36
44441;BME280;30146;52.268;20.944;2023-06-24T10:06:36;100640.85;;;28.24;37.38
44441;BME280;30146;52.268;20.944;2023-06-24T10:09:08;100644.19;;;28.20;37.54
44441;BME280;30146;52.268;20.944;2023-06-24T10:11:39;100640.10;;;28.14;37.43
44441;BME280;30146;52.268;20.944;2023-06-24T10:14:11;100639.89;;;28.10;37.86
44441;BME280;30146;52.268;20.944;2023-06-24T10:16:44;100640.08;;;28.05;37.89
44441;BME280;30146;52.268;20.944;2023-06-24T10:19:20;100642.39;;;27.98;37.59
44441;BME280;30146;52.268;20.944;2023-06-24T10:21:53;100641.09;;;27.92;37.71
44441;BME280;30146;52.268;20.944;2023-06-24T10:24:32;100638.94;;;27.88;38.22
44441;BME280;30146;52.268;20.944;2023-06-24T10:27:06;100639.40;;;27.84;38.17
44441;BME280;30146;52.268;20.944;2023-06-24T10:29:37;100642.77;;;27.81;38.24
44441;BME280;30146;52.268;20.944;2023-06-24T10:32:09;100642.75;;;27.79;38.57
44441;BME280;30146;52.268;20.944;2023-06-24T10:34:44;100638.77;;;27.76;38.31
44441;BME280;30146;52.268;20.944;2023-06-24T10:37:20;100642.23;;;27.75;38.21
44441;BME280;30146;52.268;20.944;2023-06-24T10:39:53;100640.30;;;27.75;38.40
44441;BME280;30146;52.268;20.944;2023-06-24T10:42:33;100637.89;;;27.77;38.66
44441;BME280;30146;52.268;20.944;2023-06-24T10:45:22;100638.91;;;27.75;38.13
44441;BME280;30146;52.268;20.944;2023-06-24T10:47:53;100639.23;;;27.75;38.56
44441;BME280;30146;52.268;20.944;2023-06-24T10:50:26;100636.79;;;27.77;38.45
44441;BME280;30146;52.268;20.944;2023-06-24T10:52:57;100636.95;;;27.80;38.64
44441;BME280;30146;52.268;20.944;2023-06-24T10:55:30;100637.52;;;27.81;38.19
44441;BME280;30146;52.268;20.944;2023-06-24T10:58:10;100636.40;;;27.80;37.96
44441;BME280;30146;52.268;20.944;2023-06-24T11:00:42;100637.69;;;27.74;37.58
44441;BME280;30146;52.268;20.944;2023-06-24T11:03:17;100642.05;;;27.68;37.71
44441;BME280;30146;52.268;20.944;2023-06-24T11:05:50;100643.64;;;27.61;37.53
44441;BME280;30146;52.268;20.944;2023-06-24T11:08:22;100645.28;;;27.54;37.47
44441;BME280;30146;52.268;20.944;2023-06-24T11:10:54;100646.96;;;27.42;37.38
44441;BME280;30146;52.268;20.944;2023-06-24T11:13:25;100646.14;;;27.30;37.43
44441;BME280;30146;52.268;20.944;2023-06-24T11:16:02;100647.54;;;27.19;37.74
44441;BME280;30146;52.268;20.944;2023-06-24T11:18:39;100651.52;;;27.07;37.93
44441;BME280;30146;52.268;20.944;2023-06-24T11:21:11;100652.23;;;26.95;37.84
44441;BME280;30146;52.268;20.944;2023-06-24T11:23:42;100654.39;;;26.84;38.13
44441;BME280;30146;52.268;20.944;2023-06-24T11:26:16;100659.60;;;26.73;38.13
44441;BME280;30146;52.268;20.944;2023-06-24T11:28:48;100657.58;;;26.60;38.13
44441;BME280;30146;52.268;20.944;2023-06-24T11:31:20;100663.14;;;26.48;38.25
44441;BME280;30146;52.268;20.944;2023-06-24T11:33:53;100662.41;;;26.36;38.79
44441;BME280;30146;52.268;20.944;2023-06-24T11:36:24;100661.75;;;26.25;38.89
44441;BME280;30146;52.268;20.944;2023-06-24T11:38:55;100664.55;;;26.18;39.56
44441;BME280;30146;52.268;20.944;2023-06-24T11:41:26;100665.45;;;26.10;39.32
44441;BME280;30146;52.268;20.944;2023-06-24T11:43:59;100663.88;;;26.02;39.87
44441;BME280;30146;52.268;20.944;2023-06-24T11:46:32;100668.04;;;25.96;39.70
44441;BME280;30146;52.268;20.944;2023-06-24T11:49:07;100662.46;;;25.87;39.49
44441;BME280;30146;52.268;20.944;2023-06-24T11:51:38;100666.19;;;25.79;39.82
44441;BME280;30146;52.268;20.944;2023-06-24T11:54:18;100666.78;;;25.72;39.93
44441;BME280;30146;52.268;20.944;2023-06-24T11:56:53;100666.45;;;25.64;39.72
44441;BME280;30146;52.268;20.944;2023-06-24T11:59:26;100664.11;;;25.57;39.69
44441;BME280;30146;52.268;20.944;2023-06-24T12:01:58;100669.54;;;25.52;40.00
44441;BME280;30146;52.268;20.944;2023-06-24T12:04:33;100669.00;;;25.47;39.96
44441;BME280;30146;52.268;20.944;2023-06-24T12:07:05;100668.80;;;25.42;40.30
44441;BME280;30146;52.268;20.944;2023-06-24T12:09:38;100670.35;;;25.37;39.99
44441;BME280;30146;52.268;20.944;2023-06-24T12:12:10;100668.50;;;25.31;39.85
44441;BME280;30146;52.268;20.944;2023-06-24T12:14:41;100667.78;;;25.25;39.80
44441;BME280;30146;52.268;20.944;2023-06-24T12:17:14;100669.89;;;25.20;40.04
44441;BME280;30146;52.268;20.944;2023-06-24T12:19:45;100673.00;;;25.15;40.44
44441;BME280;30146;52.268;20.944;2023-06-24T12:22:16;100676.30;;;25.12;40.78
44441;BME280;30146;52.268;20.944;2023-06-24T12:24:47;100676.54;;;25.11;40.95
44441;BME280;30146;52.268;20.944;2023-06-24T12:27:18;100673.53;;;25.10;41.18
44441;BME280;30146;52.268;20.944;2023-06-24T12:29:49;100677.15;;;25.08;41.17
44441;BME280;30146;52.268;20.944;2023-06-24T12:32:20;100673.95;;;25.06;41.27
44441;BME280;30146;52.268;20.944;2023-06-24T12:34:51;100676.52;;;25.04;41.67
44441;BME280;30146;52.268;20.944;2023-06-24T12:37:23;100675.49;;;25.03;41.89
44441;BME280;30146;52.268;20.944;2023-06-24T12:39:54;100673.04;;;25.01;41.51
44441;BME280;30146;52.268;20.944;2023-06-24T12:42:26;100672.98;;;24.99;41.80
44441;BME280;30146;52.268;20.944;2023-06-24T12:44:57;100673.53;;;24.99;41.83
44441;BME280;30146;52.268;20.944;2023-06-24T12:47:28;100674.63;;;24.98;41.89
44441;BME280;30146;52.268;20.944;2023-06-24T12:49:59;100670.22;;;24.98;42.11
44441;BME280;30146;52.268;20.944;2023-06-24T12:52:30;100676.20;;;25.01;42.51
44441;BME280;30146;52.268;20.944;2023-06-24T12:55:01;100673.39;;;25.04;42.61
44441;BME280;30146;52.268;20.944;2023-06-24T12:57:33;100679.45;;;25.07;42.86
44441;BME280;30146;52.268;20.944;2023-06-24T13:00:06;100676.55;;;25.11;42.94
44441;BME280;30146;52.268;20.944;2023-06-24T13:02:38;100673.58;;;25.17;43.23
44441;BME280;30146;52.268;20.944;2023-06-24T13:05:10;100670.38;;;25.23;43.37
44441;BME280;30146;52.268;20.944;2023-06-24T13:07:41;100673.95;;;25.30;43.42